sensor_id;sensor_type;location;lat;lon;timestamp;P1;durP1;ratioP1;P2;durP2;ratioP2
9970;SDS011;5026;51.494;11.974;2024-01-16T00:01:32;6.23;;;3.20;;
9970;SDS011;5026;51.494;11.974;2024-01-16T00:04:01;4.67;;;3.60;;
9970;SDS011;5026;51.494;11.974;2024-01-16T00:06:27;6.27;;;3.90;;
9970;SDS011;5026;51.494;11.974;2024-01-16T00:08:54;5.73;;;3.53;;
9970;SDS011;5026;51.494;11.974;2024-01-16T00:11:22;5.00;;;3.57;;
9970;SDS011;5026;51.494;11.974;2024-01-16T00:13:49;5.23;;;3.60;;
9970;SDS011;5026;51.494;11.974;2024-01-16T00:16:16;4.03;;;3.10;;
9970;SDS011;5026;51.494;11.974;2024-01-16T00:18:42;6.27;;;4.00;;
9970;SDS011;5026;51.494;11.974;2024-01-16T00:21:11;3.63;;;3.30;;
9970;SDS011;5026;51.494;11.974;2024-01-16T00:23:38;5.87;;;3.43;;
9970;SDS011;5026;51.494;11.974;2024-01-16T00:26:05;6.53;;;3.10;;
9970;SDS011;5026;51.494;11.974;2024-01-16T00:28:32;3.97;;;3.20;;
9970;SDS011;5026;51.494;11.974;2024-01-16T00:30:59;3.30;;;3.00;;
9970;SDS011;5026;51.494;11.974;2024-01-16T00:33:26;4.20;;;3.33;;
9970;SDS011;5026;51.494;11.974;2024-01-16T00:35:53;3.77;;;3.33;;
9970;SDS011;5026;51.494;11.974;2024-01-16T00:38:22;7.17;;;3.47;;
9970;SDS011;5026;51.494;11.974;2024-01-16T00:40:49;5.83;;;3.40;;
9970;SDS011;5026;51.494;11.974;2024-01-16T00:43:15;5.47;;;3.70;;
9970;SDS011;5026;51.494;11.974;2024-01-16T00:45:42;3.30;;;2.87;;
9970;SDS011;5026;51.494;11.974;2024-01-16T00:48:10;4.47;;;2.67;;
9970;SDS011;5026;51.494;11.974;2024-01-16T00:50:39;4.23;;;3.00;;
9970;SDS011;5026;51.494;11.974;2024-01-16T00:53:06;4.30;;;3.37;;
9970;SDS011;5026;51.494;11.974;2024-01-16T00:55:34;4.73;;;2.83;;
9970;SDS011;5026;51.494;11.974;2024-01-16T00:58:01;3.47;;;2.50;;
9970;SDS011;5026;51.494;11.974;2024-01-16T01:00:28;8.20;;;3.40;;
9970;SDS011;5026;51.494;11.974;2024-01-16T01:02:56;4.07;;;2.50;;
9970;SDS011;5026;51.494;11.974;2024-01-16T01:05:23;4.13;;;3.07;;
9970;SDS011;5026;51.494;11.974;2024-01-16T01:07:53;4.10;;;2.60;;
9970;SDS011;5026;51.494;11.974;2024-01-16T01:10:21;4.60;;;2.90;;
9970;SDS011;5026;51.494;11.974;2024-01-16T01:12:49;3.20;;;2.57;;
9970;SDS011;5026;51.494;11.974;2024-01-16T01:15:17;4.73;;;2.60;;
9970;SDS011;5026;51.494;11.974;2024-01-16T01:17:44;3.20;;;2.30;;
9970;SDS011;5026;51.494;11.974;2024-01-16T01:20:12;4.67;;;2.00;;
9970;SDS011;5026;51.494;11.974;2024-01-16T01:22:39;4.83;;;2.23;;
9970;SDS011;5026;51.494;11.974;2024-01-16T01:25:07;3.27;;;2.30;;
9970;SDS011;5026;51.494;11.974;2024-01-16T01:27:35;4.83;;;2.13;;
9970;SDS011;5026;51.494;11.974;2024-01-16T01:30:04;3.83;;;2.50;;
9970;SDS011;5026;51.494;11.974;2024-01-16T01:32:32;7.23;;;2.20;;
9970;SDS011;5026;51.494;11.974;2024-01-16T01:34:59;5.43;;;2.37;;
9970;SDS011;5026;51.494;11.974;2024-01-16T01:37:26;2.43;;;2.17;;
9970;SDS011;5026;51.494;11.974;2024-01-16T01:39:52;4.30;;;2.20;;
9970;SDS011;5026;51.494;11.974;2024-01-16T01:42:19;3.23;;;2.07;;
9970;SDS011;5026;51.494;11.974;2024-01-16T01:44:46;4.53;;;2.30;;
9970;SDS011;5026;51.494;11.974;2024-01-16T01:47:14;4.97;;;1.97;;
9970;SDS011;5026;51.494;11.974;2024-01-16T01:49:41;3.57;;;1.90;;
9970;SDS011;5026;51.494;11.974;2024-01-16T01:52:08;3.30;;;1.67;;
9970;SDS011;5026;51.494;11.974;2024-01-16T01:54:36;3.03;;;1.73;;
9970;SDS011;5026;51.494;11.974;2024-01-16T01:57:04;4.80;;;1.57;;
9970;SDS011;5026;51.494;11.974;2024-01-16T01:59:31;2.93;;;1.60;;
9970;SDS011;5026;51.494;11.974;2024-01-16T02:01:58;3.37;;;2.10;;
9970;SDS011;5026;51.494;11.974;2024-01-16T02:04:28;2.60;;;1.60;;
9970;SDS011;5026;51.494;11.974;2024-01-16T02:06:56;3.23;;;1.90;;
9970;SDS011;5026;51.494;11.974;2024-01-16T02:09:24;2.30;;;1.80;;
9970;SDS011;5026;51.494;11.974;2024-01-16T02:11:51;1.63;;;1.53;;
9970;SDS011;5026;51.494;11.974;2024-01-16T02:14:18;4.53;;;1.60;;
9970;SDS011;5026;51.494;11.974;2024-01-16T02:16:45;1.97;;;1.77;;
9970;SDS011;5026;51.494;11.974;2024-01-16T02:19:12;2.73;;;1.43;;
9970;SDS011;5026;51.494;11.974;2024-01-16T02:21:41;4.47;;;1.60;;
9970;SDS011;5026;51.494;11.974;2024-01-16T02:24:12;3.67;;;1.50;;
9970;SDS011;5026;51.494;11.974;2024-01-16T02:26:40;2.20;;;1.50;;
9970;SDS011;5026;51.494;11.974;2024-01-16T02:29:07;2.57;;;1.50;;
9970;SDS011;5026;51.494;11.974;2024-01-16T02:31:34;2.70;;;1.60;;
9970;SDS011;5026;51.494;11.974;2024-01-16T02:34:02;4.13;;;1.50;;
9970;SDS011;5026;51.494;11.974;2024-01-16T02:36:30;1.50;;;1.27;;
9970;SDS011;5026;51.494;11.974;2024-01-16T02:38:57;2.03;;;1.30;;
9970;SDS011;5026;51.494;11.974;2024-01-16T02:41:25;1.87;;;1.30;;
9970;SDS011;5026;51.494;11.974;2024-01-16T02:43:52;1.50;;;1.40;;
9970;SDS011;5026;51.494;11.974;2024-01-16T02:46:19;2.60;;;1.27;;
9970;SDS011;5026;51.494;11.974;2024-01-16T02:48:47;2.23;;;1.80;;
9970;SDS011;5026;51.494;11.974;2024-01-16T02:51:14;1.87;;;1.50;;
9970;SDS011;5026;51.494;11.974;2024-01-16T02:53:41;1.73;;;1.30;;
9970;SDS011;5026;51.494;11.974;2024-01-16T02:56:08;3.13;;;1.50;;
9970;SDS011;5026;51.494;11.974;2024-01-16T02:58:37;1.60;;;1.43;;
9970;SDS011;5026;51.494;11.974;2024-01-16T03:01:04;1.77;;;1.10;;
9970;SDS011;5026;51.494;11.974;2024-01-16T03:03:31;2.37;;;1.10;;
9970;SDS011;5026;51.494;11.974;2024-01-16T03:05:57;2.03;;;1.40;;
9970;SDS011;5026;51.494;11.974;2024-01-16T03:08:24;2.20;;;1.50;;
9970;SDS011;5026;51.494;11.974;2024-01-16T03:10:52;2.73;;;1.53;;
9970;SDS011;5026;51.494;11.974;2024-01-16T03:13:19;1.17;;;1.13;;
9970;SDS011;5026;51.494;11.974;2024-01-16T03:15:47;3.13;;;1.50;;
9970;SDS011;5026;51.494;11.974;2024-01-16T03:18:14;1.27;;;0.90;;
9970;SDS011;5026;51.494;11.974;2024-01-16T03:20:42;1.93;;;1.60;;
9970;SDS011;5026;51.494;11.974;2024-01-16T03:23:09;3.00;;;1.53;;
9970;SDS011;5026;51.494;11.974;2024-01-16T03:25:36;1.80;;;1.70;;
9970;SDS011;5026;51.494;11.974;2024-01-16T03:28:04;2.23;;;1.77;;
9970;SDS011;5026;51.494;11.974;2024-01-16T03:30:33;7.93;;;2.40;;
9970;SDS011;5026;51.494;11.974;2024-01-16T03:33:02;2.17;;;1.53;;
9970;SDS011;5026;51.494;11.974;2024-01-16T03:35:30;4.50;;;2.00;;
9970;SDS011;5026;51.494;11.974;2024-01-16T03:37:57;4.93;;;1.80;;
9970;SDS011;5026;51.494;11.974;2024-01-16T03:40:23;4.93;;;2.07;;
9970;SDS011;5026;51.494;11.974;2024-01-16T03:42:50;2.13;;;1.93;;
9970;SDS011;5026;51.494;11.974;2024-01-16T03:45:17;4.47;;;1.97;;
9970;SDS011;5026;51.494;11.974;2024-01-16T03:47:44;1.97;;;1.77;;
9970;SDS011;5026;51.494;11.974;2024-01-16T03:50:13;2.37;;;1.80;;
9970;SDS011;5026;51.494;11.974;2024-01-16T03:52:40;3.07;;;2.00;;
9970;SDS011;5026;51.494;11.974;2024-01-16T03:55:07;2.20;;;1.80;;
9970;SDS011;5026;51.494;11.974;2024-01-16T03:57:34;2.97;;;1.80;;
9970;SDS011;5026;51.494;11.974;2024-01-16T04:00:01;3.13;;;1.93;;
9970;SDS011;5026;51.494;11.974;2024-01-16T04:02:30;2.33;;;1.70;;
9970;SDS011;5026;51.494;11.974;2024-01-16T04:04:57;2.43;;;1.87;;
9970;SDS011;5026;51.494;11.974;2024-01-16T04:07:25;3.23;;;1.80;;
9970;SDS011;5026;51.494;11.974;2024-01-16T04:09:52;4.57;;;2.00;;
9970;SDS011;5026;51.494;11.974;2024-01-16T04:12:19;5.27;;;1.77;;
9970;SDS011;5026;51.494;11.974;2024-01-16T04:14:46;2.90;;;1.50;;
9970;SDS011;5026;51.494;11.974;2024-01-16T04:17:13;3.07;;;1.60;;
9970;SDS011;5026;51.494;11.974;2024-01-16T04:19:40;3.70;;;1.43;;
9970;SDS011;5026;51.494;11.974;2024-01-16T04:22:07;5.13;;;1.80;;
9970;SDS011;5026;51.494;11.974;2024-01-16T04:24:35;5.97;;;1.93;;
9970;SDS011;5026;51.494;11.974;2024-01-16T04:27:02;1.80;;;1.70;;
9970;SDS011;5026;51.494;11.974;2024-01-16T04:29:29;5.10;;;2.13;;
9970;SDS011;5026;51.494;11.974;2024-01-16T04:31:56;11.03;;;2.13;;
9970;SDS011;5026;51.494;11.974;2024-01-16T04:34:23;6.17;;;2.40;;
9970;SDS011;5026;51.494;11.974;2024-01-16T04:36:50;5.37;;;2.40;;
9970;SDS011;5026;51.494;11.974;2024-01-16T04:39:17;4.20;;;2.50;;
9970;SDS011;5026;51.494;11.974;2024-01-16T04:41:46;2.90;;;2.23;;
9970;SDS011;5026;51.494;11.974;2024-01-16T04:44:12;6.63;;;2.83;;
9970;SDS011;5026;51.494;11.974;2024-01-16T04:46:39;5.53;;;2.50;;
9970;SDS011;5026;51.494;11.974;2024-01-16T04:49:06;6.40;;;2.53;;
9970;SDS011;5026;51.494;11.974;2024-01-16T04:51:33;2.87;;;2.30;;
9970;SDS011;5026;51.494;11.974;2024-01-16T04:54:00;3.23;;;2.47;;
9970;SDS011;5026;51.494;11.974;2024-01-16T04:56:27;3.87;;;2.63;;
9970;SDS011;5026;51.494;11.974;2024-01-16T04:58:56;3.30;;;2.30;;
9970;SDS011;5026;51.494;11.974;2024-01-16T05:01:23;5.47;;;2.40;;
9970;SDS011;5026;51.494;11.974;2024-01-16T05:03:50;7.50;;;2.83;;
9970;SDS011;5026;51.494;11.974;2024-01-16T05:06:17;4.43;;;2.23;;
9970;SDS011;5026;51.494;11.974;2024-01-16T05:08:44;2.87;;;2.50;;
9970;SDS011;5026;51.494;11.974;2024-01-16T05:11:11;4.83;;;2.60;;
9970;SDS011;5026;51.494;11.974;2024-01-16T05:13:37;6.17;;;3.27;;
9970;SDS011;5026;51.494;11.974;2024-01-16T05:16:06;5.47;;;2.90;;
9970;SDS011;5026;51.494;11.974;2024-01-16T05:18:33;11.10;;;3.07;;
9970;SDS011;5026;51.494;11.974;2024-01-16T05:21:00;4.90;;;3.20;;
9970;SDS011;5026;51.494;11.974;2024-01-16T05:23:27;8.33;;;2.73;;
9970;SDS011;5026;51.494;11.974;2024-01-16T05:25:54;9.47;;;3.27;;
9970;SDS011;5026;51.494;11.974;2024-01-16T05:28:21;3.73;;;3.00;;
9970;SDS011;5026;51.494;11.974;2024-01-16T05:30:48;7.73;;;2.97;;
9970;SDS011;5026;51.494;11.974;2024-01-16T05:33:17;3.23;;;2.80;;
9970;SDS011;5026;51.494;11.974;2024-01-16T05:35:44;7.23;;;3.00;;
9970;SDS011;5026;51.494;11.974;2024-01-16T05:38:10;3.90;;;2.83;;
9970;SDS011;5026;51.494;11.974;2024-01-16T05:40:38;3.57;;;3.00;;
9970;SDS011;5026;51.494;11.974;2024-01-16T05:43:05;5.30;;;3.10;;
9970;SDS011;5026;51.494;11.974;2024-01-16T05:45:32;6.13;;;3.00;;
9970;SDS011;5026;51.494;11.974;2024-01-16T05:47:59;4.50;;;2.83;;
9970;SDS011;5026;51.494;11.974;2024-01-16T05:50:27;7.40;;;3.00;;
9970;SDS011;5026;51.494;11.974;2024-01-16T05:52:55;4.50;;;2.83;;
9970;SDS011;5026;51.494;11.974;2024-01-16T05:55:22;4.23;;;3.03;;
9970;SDS011;5026;51.494;11.974;2024-01-16T05:57:49;5.47;;;2.80;;
9970;SDS011;5026;51.494;11.974;2024-01-16T06:00:16;4.93;;;2.67;;
9970;SDS011;5026;51.494;11.974;2024-01-16T06:02:44;8.87;;;3.00;;
9970;SDS011;5026;51.494;11.974;2024-01-16T06:05:11;4.53;;;2.80;;
9970;SDS011;5026;51.494;11.974;2024-01-16T06:07:40;5.43;;;3.43;;
9970;SDS011;5026;51.494;11.974;2024-01-16T06:10:07;11.47;;;3.37;;
9970;SDS011;5026;51.494;11.974;2024-01-16T06:12:35;4.80;;;3.47;;
9970;SDS011;5026;51.494;11.974;2024-01-16T06:15:02;4.10;;;2.40;;
9970;SDS011;5026;51.494;11.974;2024-01-16T06:17:29;7.17;;;2.60;;
9970;SDS011;5026;51.494;11.974;2024-01-16T06:19:57;4.90;;;3.00;;
9970;SDS011;5026;51.494;11.974;2024-01-16T06:22:24;7.10;;;2.27;;
9970;SDS011;5026;51.494;11.974;2024-01-16T06:24:52;6.07;;;2.20;;
9970;SDS011;5026;51.494;11.974;2024-01-16T06:27:19;5.27;;;2.90;;
9970;SDS011;5026;51.494;11.974;2024-01-16T06:29:46;5.90;;;2.70;;
9970;SDS011;5026;51.494;11.974;2024-01-16T06:32:14;7.43;;;2.80;;
9970;SDS011;5026;51.494;11.974;2024-01-16T06:34:41;8.27;;;3.43;;
9970;SDS011;5026;51.494;11.974;2024-01-16T06:37:08;11.20;;;3.30;;
9970;SDS011;5026;51.494;11.974;2024-01-16T06:39:35;6.93;;;3.30;;
9970;SDS011;5026;51.494;11.974;2024-01-16T06:42:05;6.83;;;3.53;;
9970;SDS011;5026;51.494;11.974;2024-01-16T06:44:32;9.07;;;3.73;;
9970;SDS011;5026;51.494;11.974;2024-01-16T06:46:59;10.17;;;3.70;;
9970;SDS011;5026;51.494;11.974;2024-01-16T06:49:26;8.13;;;4.13;;
9970;SDS011;5026;51.494;11.974;2024-01-16T06:51:53;7.83;;;3.20;;
9970;SDS011;5026;51.494;11.974;2024-01-16T06:54:20;9.97;;;3.87;;
9970;SDS011;5026;51.494;11.974;2024-01-16T06:56:48;4.63;;;3.27;;
9970;SDS011;5026;51.494;11.974;2024-01-16T06:59:16;12.00;;;3.37;;
9970;SDS011;5026;51.494;11.974;2024-01-16T07:01:46;6.33;;;3.60;;
9970;SDS011;5026;51.494;11.974;2024-01-16T07:04:13;11.43;;;3.73;;
9970;SDS011;5026;51.494;11.974;2024-01-16T07:06:41;8.50;;;3.50;;
9970;SDS011;5026;51.494;11.974;2024-01-16T07:09:08;9.63;;;5.27;;
9970;SDS011;5026;51.494;11.974;2024-01-16T07:11:36;12.73;;;4.40;;
9970;SDS011;5026;51.494;11.974;2024-01-16T07:14:04;7.03;;;3.40;;
9970;SDS011;5026;51.494;11.974;2024-01-16T07:16:34;7.97;;;4.10;;
9970;SDS011;5026;51.494;11.974;2024-01-16T07:19:01;10.03;;;4.33;;
9970;SDS011;5026;51.494;11.974;2024-01-16T07:21:28;9.27;;;4.40;;
9970;SDS011;5026;51.494;11.974;2024-01-16T07:23:55;10.63;;;4.20;;
9970;SDS011;5026;51.494;11.974;2024-01-16T07:26:23;9.83;;;4.10;;
9970;SDS011;5026;51.494;11.974;2024-01-16T07:28:50;10.33;;;4.53;;
9970;SDS011;5026;51.494;11.974;2024-01-16T07:31:17;14.73;;;5.00;;
9970;SDS011;5026;51.494;11.974;2024-01-16T07:33:45;8.90;;;4.00;;
9970;SDS011;5026;51.494;11.974;2024-01-16T07:36:13;12.40;;;5.00;;
9970;SDS011;5026;51.494;11.974;2024-01-16T07:38:40;9.90;;;4.77;;
9970;SDS011;5026;51.494;11.974;2024-01-16T07:41:07;8.50;;;4.97;;
9970;SDS011;5026;51.494;11.974;2024-01-16T07:43:34;10.57;;;5.17;;
9970;SDS011;5026;51.494;11.974;2024-01-16T07:46:01;10.93;;;5.27;;
9970;SDS011;5026;51.494;11.974;2024-01-16T07:48:29;7.93;;;4.30;;
9970;SDS011;5026;51.494;11.974;2024-01-16T07:50:57;9.00;;;4.40;;
9970;SDS011;5026;51.494;11.974;2024-01-16T07:53:24;9.50;;;5.00;;
9970;SDS011;5026;51.494;11.974;2024-01-16T07:55:52;6.97;;;4.57;;
9970;SDS011;5026;51.494;11.974;2024-01-16T07:58:20;11.13;;;4.90;;
9970;SDS011;5026;51.494;11.974;2024-01-16T08:00:47;14.03;;;5.53;;
9970;SDS011;5026;51.494;11.974;2024-01-16T08:03:15;13.53;;;5.03;;
9970;SDS011;5026;51.494;11.974;2024-01-16T08:05:42;9.67;;;4.80;;
9970;SDS011;5026;51.494;11.974;2024-01-16T08:08:10;15.23;;;6.77;;
9970;SDS011;5026;51.494;11.974;2024-01-16T08:10:37;11.10;;;5.30;;
9970;SDS011;5026;51.494;11.974;2024-01-16T08:13:04;9.33;;;4.60;;
9970;SDS011;5026;51.494;11.974;2024-01-16T08:15:31;10.43;;;3.77;;
9970;SDS011;5026;51.494;11.974;2024-01-16T08:17:58;7.47;;;3.93;;
9970;SDS011;5026;51.494;11.974;2024-01-16T08:20:25;11.70;;;3.90;;
9970;SDS011;5026;51.494;11.974;2024-01-16T08:22:52;8.30;;;3.93;;
9970;SDS011;5026;51.494;11.974;2024-01-16T08:25:21;7.03;;;3.63;;
9970;SDS011;5026;51.494;11.974;2024-01-16T08:27:48;6.27;;;3.10;;
9970;SDS011;5026;51.494;11.974;2024-01-16T08:30:15;7.37;;;3.57;;
9970;SDS011;5026;51.494;11.974;2024-01-16T08:32:42;8.93;;;3.30;;
9970;SDS011;5026;51.494;11.974;2024-01-16T08:35:09;12.57;;;3.67;;
9970;SDS011;5026;51.494;11.974;2024-01-16T08:37:36;13.17;;;4.27;;
9970;SDS011;5026;51.494;11.974;2024-01-16T08:40:03;5.90;;;3.67;;
9970;SDS011;5026;51.494;11.974;2024-01-16T08:42:33;4.80;;;3.60;;
9970;SDS011;5026;51.494;11.974;2024-01-16T08:44:59;6.80;;;3.60;;
9970;SDS011;5026;51.494;11.974;2024-01-16T08:47:30;9.43;;;3.73;;
9970;SDS011;5026;51.494;11.974;2024-01-16T08:49:57;5.47;;;3.53;;
9970;SDS011;5026;51.494;11.974;2024-01-16T08:52:24;6.03;;;3.13;;
9970;SDS011;5026;51.494;11.974;2024-01-16T08:54:51;5.73;;;2.90;;
9970;SDS011;5026;51.494;11.974;2024-01-16T08:57:18;7.47;;;3.80;;
9970;SDS011;5026;51.494;11.974;2024-01-16T08:59:46;5.07;;;3.40;;
9970;SDS011;5026;51.494;11.974;2024-01-16T09:02:13;6.27;;;3.40;;
9970;SDS011;5026;51.494;11.974;2024-01-16T09:04:41;5.17;;;3.47;;
9970;SDS011;5026;51.494;11.974;2024-01-16T09:07:08;6.80;;;3.50;;
9970;SDS011;5026;51.494;11.974;2024-01-16T09:09:34;6.70;;;3.40;;
9970;SDS011;5026;51.494;11.974;2024-01-16T09:12:00;6.00;;;3.40;;
9970;SDS011;5026;51.494;11.974;2024-01-16T09:14:28;9.53;;;3.53;;
9970;SDS011;5026;51.494;11.974;2024-01-16T09:16:57;7.30;;;3.33;;
9970;SDS011;5026;51.494;11.974;2024-01-16T09:19:25;5.40;;;3.77;;
9970;SDS011;5026;51.494;11.974;2024-01-16T09:21:52;7.00;;;3.70;;
9970;SDS011;5026;51.494;11.974;2024-01-16T09:24:19;7.53;;;3.33;;
9970;SDS011;5026;51.494;11.974;2024-01-16T09:26:46;9.57;;;3.90;;
9970;SDS011;5026;51.494;11.974;2024-01-16T09:29:13;9.30;;;4.17;;
9970;SDS011;5026;51.494;11.974;2024-01-16T09:31:41;6.83;;;4.00;;
9970;SDS011;5026;51.494;11.974;2024-01-16T09:34:10;8.57;;;3.60;;
9970;SDS011;5026;51.494;11.974;2024-01-16T09:36:38;6.67;;;3.40;;
9970;SDS011;5026;51.494;11.974;2024-01-16T09:39:05;8.53;;;3.40;;
9970;SDS011;5026;51.494;11.974;2024-01-16T09:41:36;7.57;;;3.53;;
9970;SDS011;5026;51.494;11.974;2024-01-16T09:44:03;7.73;;;3.60;;
9970;SDS011;5026;51.494;11.974;2024-01-16T09:46:30;5.03;;;3.13;;
9970;SDS011;5026;51.494;11.974;2024-01-16T09:48:59;4.73;;;3.70;;
9970;SDS011;5026;51.494;11.974;2024-01-16T09:51:28;6.53;;;3.47;;
9970;SDS011;5026;51.494;11.974;2024-01-16T09:53:55;7.33;;;2.73;;
9970;SDS011;5026;51.494;11.974;2024-01-16T09:56:23;4.23;;;3.10;;
9970;SDS011;5026;51.494;11.974;2024-01-16T09:58:53;4.27;;;3.57;;
9970;SDS011;5026;51.494;11.974;2024-01-16T10:01:23;7.53;;;3.77;;
9970;SDS011;5026;51.494;11.974;2024-01-16T10:03:53;7.13;;;3.37;;
9970;SDS011;5026;51.494;11.974;2024-01-16T10:06:20;5.37;;;3.00;;
9970;SDS011;5026;51.494;11.974;2024-01-16T10:08:49;13.37;;;3.80;;
9970;SDS011;5026;51.494;11.974;2024-01-16T10:11:16;8.67;;;4.40;;
9970;SDS011;5026;51.494;11.974;2024-01-16T10:13:43;6.23;;;3.10;;
9970;SDS011;5026;51.494;11.974;2024-01-16T10:16:10;7.70;;;5.00;;
9970;SDS011;5026;51.494;11.974;2024-01-16T10:18:37;5.87;;;3.00;;
9970;SDS011;5026;51.494;11.974;2024-01-16T10:21:04;5.73;;;3.60;;
9970;SDS011;5026;51.494;11.974;2024-01-16T10:23:45;7.83;;;3.30;;
9970;SDS011;5026;51.494;11.974;2024-01-16T10:26:13;6.73;;;3.70;;
9970;SDS011;5026;51.494;11.974;2024-01-16T10:28:41;5.60;;;3.63;;
9970;SDS011;5026;51.494;11.974;2024-01-16T10:31:09;11.13;;;4.07;;
9970;SDS011;5026;51.494;11.974;2024-01-16T10:33:37;6.73;;;3.10;;
9970;SDS011;5026;51.494;11.974;2024-01-16T10:36:07;7.13;;;4.10;;
9970;SDS011;5026;51.494;11.974;2024-01-16T10:38:35;10.90;;;4.20;;
9970;SDS011;5026;51.494;11.974;2024-01-16T10:41:05;9.33;;;4.90;;
9970;SDS011;5026;51.494;11.974;2024-01-16T10:43:38;9.33;;;3.87;;
9970;SDS011;5026;51.494;11.974;2024-01-16T10:46:08;5.33;;;3.50;;
9970;SDS011;5026;51.494;11.974;2024-01-16T10:48:37;8.50;;;4.40;;
9970;SDS011;5026;51.494;11.974;2024-01-16T10:51:05;7.13;;;3.10;;
9970;SDS011;5026;51.494;11.974;2024-01-16T10:53:33;5.83;;;2.93;;
9970;SDS011;5026;51.494;11.974;2024-01-16T10:56:01;8.33;;;3.83;;
9970;SDS011;5026;51.494;11.974;2024-01-16T10:58:29;8.20;;;3.40;;
9970;SDS011;5026;51.494;11.974;2024-01-16T11:01:01;10.70;;;2.93;;
9970;SDS011;5026;51.494;11.974;2024-01-16T11:03:35;6.87;;;3.10;;
9970;SDS011;5026;51.494;11.974;2024-01-16T11:06:06;7.63;;;3.57;;
9970;SDS011;5026;51.494;11.974;2024-01-16T11:08:35;6.13;;;3.07;;
9970;SDS011;5026;51.494;11.974;2024-01-16T11:11:04;6.43;;;3.53;;
9970;SDS011;5026;51.494;11.974;2024-01-16T11:13:31;5.40;;;2.67;;
9970;SDS011;5026;51.494;11.974;2024-01-16T11:16:01;7.07;;;2.90;;
9970;SDS011;5026;51.494;11.974;2024-01-16T11:18:30;7.00;;;3.07;;
9970;SDS011;5026;51.494;11.974;2024-01-16T11:20:57;6.37;;;3.30;;
9970;SDS011;5026;51.494;11.974;2024-01-16T11:23:26;4.83;;;3.00;;
9970;SDS011;5026;51.494;11.974;2024-01-16T11:25:53;6.83;;;3.20;;
9970;SDS011;5026;51.494;11.974;2024-01-16T11:28:20;10.10;;;3.80;;
9970;SDS011;5026;51.494;11.974;2024-01-16T11:30:52;5.77;;;2.77;;
9970;SDS011;5026;51.494;11.974;2024-01-16T11:39:18;8.67;;;4.00;;
9970;SDS011;5026;51.494;11.974;2024-01-16T11:41:52;9.70;;;3.93;;
9970;SDS011;5026;51.494;11.974;2024-01-16T11:44:39;8.63;;;3.63;;
9970;SDS011;5026;51.494;11.974;2024-01-16T11:47:07;6.10;;;2.63;;
9970;SDS011;5026;51.494;11.974;2024-01-16T11:49:35;6.77;;;3.27;;
9970;SDS011;5026;51.494;11.974;2024-01-16T11:52:03;5.50;;;2.90;;
9970;SDS011;5026;51.494;11.974;2024-01-16T11:54:30;7.10;;;3.63;;
9970;SDS011;5026;51.494;11.974;2024-01-16T12:00:16;7.57;;;2.90;;
9970;SDS011;5026;51.494;11.974;2024-01-16T12:02:51;4.23;;;2.87;;
9970;SDS011;5026;51.494;11.974;2024-01-16T12:05:21;9.33;;;3.47;;
9970;SDS011;5026;51.494;11.974;2024-01-16T12:07:49;6.17;;;3.30;;
9970;SDS011;5026;51.494;11.974;2024-01-16T12:10:17;3.87;;;2.80;;
9970;SDS011;5026;51.494;11.974;2024-01-16T12:12:46;6.70;;;3.70;;
9970;SDS011;5026;51.494;11.974;2024-01-16T12:15:14;5.03;;;3.00;;
9970;SDS011;5026;51.494;11.974;2024-01-16T12:17:55;8.63;;;3.60;;
9970;SDS011;5026;51.494;11.974;2024-01-16T12:20:25;6.90;;;4.07;;
9970;SDS011;5026;51.494;11.974;2024-01-16T12:22:54;12.60;;;5.27;;
9970;SDS011;5026;51.494;11.974;2024-01-16T12:25:22;12.70;;;3.73;;
9970;SDS011;5026;51.494;11.974;2024-01-16T12:27:55;5.27;;;3.20;;
9970;SDS011;5026;51.494;11.974;2024-01-16T12:30:24;7.80;;;3.70;;
9970;SDS011;5026;51.494;11.974;2024-01-16T12:33:02;5.10;;;3.50;;
9970;SDS011;5026;51.494;11.974;2024-01-16T12:35:32;7.27;;;3.30;;
9970;SDS011;5026;51.494;11.974;2024-01-16T12:38:00;9.30;;;4.00;;
9970;SDS011;5026;51.494;11.974;2024-01-16T12:40:28;8.73;;;3.70;;
9970;SDS011;5026;51.494;11.974;2024-01-16T12:42:55;8.10;;;3.47;;
9970;SDS011;5026;51.494;11.974;2024-01-16T12:45:22;6.07;;;3.10;;
9970;SDS011;5026;51.494;11.974;2024-01-16T12:47:50;10.63;;;3.80;;
9970;SDS011;5026;51.494;11.974;2024-01-16T12:50:21;5.40;;;3.30;;
9970;SDS011;5026;51.494;11.974;2024-01-16T12:52:50;6.37;;;3.40;;
9970;SDS011;5026;51.494;11.974;2024-01-16T12:55:26;4.87;;;3.67;;
9970;SDS011;5026;51.494;11.974;2024-01-16T13:00:38;7.33;;;4.20;;
9970;SDS011;5026;51.494;11.974;2024-01-16T13:03:07;7.23;;;4.17;;
9970;SDS011;5026;51.494;11.974;2024-01-16T13:05:40;5.50;;;4.00;;
9970;SDS011;5026;51.494;11.974;2024-01-16T13:08:16;8.13;;;4.57;;
9970;SDS011;5026;51.494;11.974;2024-01-16T13:10:44;9.30;;;4.07;;
9970;SDS011;5026;51.494;11.974;2024-01-16T13:13:11;7.33;;;4.30;;
9970;SDS011;5026;51.494;11.974;2024-01-16T13:15:39;13.10;;;5.40;;
9970;SDS011;5026;51.494;11.974;2024-01-16T13:18:06;5.63;;;4.40;;
9970;SDS011;5026;51.494;11.974;2024-01-16T13:20:45;9.30;;;4.80;;
9970;SDS011;5026;51.494;11.974;2024-01-16T13:23:14;8.00;;;4.70;;
9970;SDS011;5026;51.494;11.974;2024-01-16T13:25:42;6.23;;;4.47;;
9970;SDS011;5026;51.494;11.974;2024-01-16T13:28:10;4.80;;;4.20;;
9970;SDS011;5026;51.494;11.974;2024-01-16T13:30:37;7.33;;;4.93;;
9970;SDS011;5026;51.494;11.974;2024-01-16T13:33:04;6.47;;;4.20;;
9970;SDS011;5026;51.494;11.974;2024-01-16T13:35:31;7.13;;;4.43;;
9970;SDS011;5026;51.494;11.974;2024-01-16T13:38:01;5.60;;;4.50;;
9970;SDS011;5026;51.494;11.974;2024-01-16T13:40:30;8.97;;;4.47;;
9970;SDS011;5026;51.494;11.974;2024-01-16T13:42:57;5.97;;;4.10;;
9970;SDS011;5026;51.494;11.974;2024-01-16T13:45:25;9.20;;;4.43;;
9970;SDS011;5026;51.494;11.974;2024-01-16T13:47:52;8.60;;;4.83;;
9970;SDS011;5026;51.494;11.974;2024-01-16T13:50:19;8.40;;;4.50;;
9970;SDS011;5026;51.494;11.974;2024-01-16T13:52:46;6.90;;;4.27;;
9970;SDS011;5026;51.494;11.974;2024-01-16T13:55:13;8.67;;;5.00;;
9970;SDS011;5026;51.494;11.974;2024-01-16T13:57:42;6.97;;;4.30;;
9970;SDS011;5026;51.494;11.974;2024-01-16T14:00:11;6.60;;;4.63;;
9970;SDS011;5026;51.494;11.974;2024-01-16T14:02:40;6.93;;;4.63;;
9970;SDS011;5026;51.494;11.974;2024-01-16T14:05:08;6.53;;;4.70;;
9970;SDS011;5026;51.494;11.974;2024-01-16T14:07:36;11.43;;;5.47;;
9970;SDS011;5026;51.494;11.974;2024-01-16T14:10:04;15.47;;;6.23;;
9970;SDS011;5026;51.494;11.974;2024-01-16T14:12:32;9.97;;;5.53;;
9970;SDS011;5026;51.494;11.974;2024-01-16T14:15:02;11.37;;;5.90;;
9970;SDS011;5026;51.494;11.974;2024-01-16T14:17:32;10.50;;;6.73;;
9970;SDS011;5026;51.494;11.974;2024-01-16T14:19:59;9.13;;;6.27;;
9970;SDS011;5026;51.494;11.974;2024-01-16T14:22:26;13.27;;;7.00;;
9970;SDS011;5026;51.494;11.974;2024-01-16T14:24:52;12.03;;;5.87;;
9970;SDS011;5026;51.494;11.974;2024-01-16T14:27:20;12.47;;;5.60;;
9970;SDS011;5026;51.494;11.974;2024-01-16T14:29:46;10.03;;;5.37;;
9970;SDS011;5026;51.494;11.974;2024-01-16T14:32:15;6.73;;;4.57;;
9970;SDS011;5026;51.494;11.974;2024-01-16T14:34:42;8.77;;;5.80;;
9970;SDS011;5026;51.494;11.974;2024-01-16T14:37:08;6.73;;;5.40;;
9970;SDS011;5026;51.494;11.974;2024-01-16T14:39:38;12.17;;;5.23;;
9970;SDS011;5026;51.494;11.974;2024-01-16T14:42:05;8.90;;;5.30;;
9970;SDS011;5026;51.494;11.974;2024-01-16T14:44:33;5.90;;;4.17;;
9970;SDS011;5026;51.494;11.974;2024-01-16T14:47:00;8.13;;;4.47;;
9970;SDS011;5026;51.494;11.974;2024-01-16T14:49:28;9.67;;;4.53;;
9970;SDS011;5026;51.494;11.974;2024-01-16T14:51:57;6.27;;;4.63;;
9970;SDS011;5026;51.494;11.974;2024-01-16T14:54:24;7.40;;;5.20;;
9970;SDS011;5026;51.494;11.974;2024-01-16T14:56:51;10.87;;;5.33;;
9970;SDS011;5026;51.494;11.974;2024-01-16T14:59:18;10.10;;;5.17;;
9970;SDS011;5026;51.494;11.974;2024-01-16T15:01:45;10.63;;;5.70;;
9970;SDS011;5026;51.494;11.974;2024-01-16T15:04:11;8.40;;;4.80;;
9970;SDS011;5026;51.494;11.974;2024-01-16T15:06:40;8.53;;;5.87;;
9970;SDS011;5026;51.494;11.974;2024-01-16T15:09:07;9.07;;;5.77;;
9970;SDS011;5026;51.494;11.974;2024-01-16T15:11:35;7.93;;;5.07;;
9970;SDS011;5026;51.494;11.974;2024-01-16T15:14:02;8.07;;;6.07;;
9970;SDS011;5026;51.494;11.974;2024-01-16T15:16:29;9.10;;;5.40;;